createdAt,value
2022-11-12T00:01:43.008Z,94.51
2022-11-12T00:04:28.800Z,94.47
2022-11-12T00:07:14.510Z,94.46
2022-11-12T00:10:00.266Z,94.34
2022-11-12T00:12:46.150Z,94.62
2022-11-12T00:15:32.075Z,94.62
2022-11-12T00:18:18.245Z,94.35
2022-11-12T00:21:04.120Z,94.55
2022-11-12T00:23:49.871Z,94.54
2022-11-12T00:26:35.853Z,94.71
2022-11-12T00:29:21.588Z,94.89
2022-11-12T00:32:08.018Z,94.57
2022-11-12T00:34:54.262Z,94.56
2022-11-12T00:37:40.100Z,94.57
2022-11-12T00:40:26.770Z,94.23
2022-11-12T00:43:12.664Z,94.65
2022-11-12T00:45:58.377Z,94.70
2022-11-12T00:48:44.246Z,94.17
2022-11-12T00:51:30.318Z,94.57
2022-11-12T00:54:16.428Z,94.35
2022-11-12T00:57:02.231Z,94.45
2022-11-12T00:59:48.348Z,94.64
2022-11-12T01:02:42.323Z,94.21
2022-11-12T01:05:29.982Z,94.48
2022-11-12T01:08:16.039Z,94.36
2022-11-12T01:11:10.220Z,94.98
2022-11-12T01:14:05.071Z,94.63
2022-11-12T01:16:51.059Z,94.82
2022-11-12T01:19:36.875Z,95.05
2022-11-12T01:22:22.681Z,94.91
2022-11-12T01:25:08.865Z,94.90
2022-11-12T01:27:55.041Z,94.46
2022-11-12T01:30:40.838Z,94.99
2022-11-12T01:33:26.652Z,94.76
2022-11-12T01:36:13.605Z,94.46
2022-11-12T01:38:59.406Z,94.62
2022-11-12T01:41:45.372Z,94.64
2022-11-12T01:44:32.745Z,94.18
2022-11-12T01:47:25.488Z,94.63
2022-11-12T01:50:26.227Z,94.27
2022-11-12T01:53:14.139Z,94.34
2022-11-12T01:56:01.427Z,94.14
2022-11-12T01:58:49.421Z,94.48
2022-11-12T02:01:37.230Z,94.34
2022-11-12T02:04:24.009Z,93.95
2022-11-12T02:07:11.045Z,93.67
2022-11-12T02:09:58.214Z,93.62
2022-11-12T02:13:03.665Z,93.80
2022-11-12T02:15:49.748Z,93.90
2022-11-12T02:18:35.899Z,93.72
2022-11-12T02:21:23.585Z,93.93
2022-11-12T02:24:12.371Z,93.54
2022-11-12T02:26:59.128Z,93.90
2022-11-12T02:29:48.064Z,93.74
2022-11-12T02:32:33.935Z,93.48
2022-11-12T02:35:19.778Z,93.41
2022-11-12T02:38:06.866Z,93.55
2022-11-12T02:40:53.309Z,93.75
2022-11-12T02:43:39.888Z,93.73
2022-11-12T02:46:25.802Z,93.61
2022-11-12T02:49:11.695Z,93.66
2022-11-12T02:51:57.634Z,93.57
2022-11-12T02:54:43.311Z,93.42
2022-11-12T02:57:30.564Z,93.39
2022-11-12T03:00:16.929Z,93.48
2022-11-12T03:03:02.878Z,93.37
2022-11-12T03:06:00.820Z,93.00
2022-11-12T03:08:46.967Z,93.28
2022-11-12T03:11:32.840Z,92.98
2022-11-12T03:14:18.772Z,93.26
2022-11-12T03:17:04.978Z,93.12
2022-11-12T03:19:50.649Z,93.13
2022-11-12T03:22:37.441Z,93.07
2022-11-12T03:25:24.273Z,93.08
2022-11-12T03:28:12.245Z,92.71
2022-11-12T03:31:00.085Z,92.59
2022-11-12T03:33:46.097Z,92.29
2022-11-12T03:36:32.134Z,92.77
2022-11-12T03:39:18.440Z,92.44
2022-11-12T03:42:04.621Z,92.89
2022-11-12T03:44:50.690Z,92.29
2022-11-12T03:47:36.807Z,92.32
2022-11-12T03:50:26.511Z,92.28
2022-11-12T03:53:12.529Z,92.13
2022-11-12T03:55:58.697Z,91.91
2022-11-12T03:58:44.581Z,91.59
2022-11-12T04:01:30.603Z,92.37
2022-11-12T04:04:16.238Z,92.10
2022-11-12T04:07:20.304Z,91.81
2022-11-12T04:10:06.365Z,91.88
2022-11-12T04:13:10.743Z,91.26
2022-11-12T04:16:21.025Z,91.10
2022-11-12T04:19:26.050Z,91.42
2022-11-12T04:22:12.267Z,91.27
2022-11-12T04:25:16.362Z,91.30
2022-11-12T04:28:02.202Z,91.39
2022-11-12T04:30:48.143Z,91.62
2022-11-12T04:33:34.308Z,91.58
2022-11-12T04:36:20.539Z,91.29
2022-11-12T04:39:06.542Z,91.49
2022-11-12T04:42:11.260Z,91.28
2022-11-12T04:44:57.615Z,91.77
2022-11-12T04:47:46.935Z,91.27
2022-11-12T04:50:32.773Z,91.24
2022-11-12T04:53:19.101Z,91.38
2022-11-12T04:56:05.123Z,91.32
2022-11-12T04:58:51.279Z,91.05
2022-11-12T05:01:37.247Z,91.14
2022-11-12T05:04:23.161Z,91.31
2022-11-12T05:07:09.560Z,90.96
2022-11-12T05:09:55.371Z,90.70
2022-11-12T05:12:41.058Z,90.81
2022-11-12T05:15:26.741Z,90.81
2022-11-12T05:18:12.869Z,90.84
2022-11-12T05:21:18.799Z,90.58
2022-11-12T05:24:04.887Z,90.90
2022-11-12T05:26:50.964Z,90.76
2022-11-12T05:29:37.319Z,90.77
2022-11-12T05:32:23.114Z,90.82
2022-11-12T05:35:09.118Z,91.09
2022-11-12T05:37:55.034Z,90.91
2022-11-12T05:40:45.492Z,90.81
2022-11-12T05:43:31.239Z,91.28
2022-11-12T05:46:18.385Z,91.24
2022-11-12T05:49:04.466Z,91.17
2022-11-12T05:51:51.774Z,91.01
2022-11-12T05:54:37.365Z,91.39
2022-11-12T05:57:23.364Z,91.53
2022-11-12T06:00:09.948Z,91.48
2022-11-12T06:02:58.941Z,91.63
2022-11-12T06:05:44.966Z,91.77
2022-11-12T06:08:30.737Z,91.46
2022-11-12T06:11:16.509Z,91.75
2022-11-12T06:14:04.042Z,92.07
2022-11-12T06:16:49.904Z,92.20
2022-11-12T06:19:35.800Z,92.12
2022-11-12T06:22:21.761Z,92.57
2022-11-12T06:25:07.977Z,92.75
2022-11-12T06:27:53.810Z,92.91
2022-11-12T06:30:39.551Z,92.85
2022-11-12T06:33:25.411Z,92.93
2022-11-12T06:36:13.270Z,93.02
2022-11-12T06:38:59.426Z,93.18
2022-11-12T06:41:45.422Z,92.89
2022-11-12T06:44:31.290Z,92.81
2022-11-12T06:47:17.624Z,92.69
2022-11-12T06:50:03.702Z,92.47
2022-11-12T06:52:49.601Z,92.77
2022-11-12T06:55:35.725Z,92.55
2022-11-12T06:58:21.743Z,92.37
2022-11-12T07:01:12.070Z,92.15
2022-11-12T07:03:58.209Z,92.42
2022-11-12T07:06:44.462Z,92.18
2022-11-12T07:09:30.692Z,91.87
2022-11-12T07:12:16.864Z,91.91
2022-11-12T07:15:02.874Z,91.56
2022-11-12T07:17:48.829Z,91.88
2022-11-12T07:20:35.394Z,91.38
2022-11-12T07:23:21.088Z,91.63
2022-11-12T07:26:22.014Z,91.04
2022-11-12T07:29:07.881Z,91.23
2022-11-12T07:31:53.983Z,91.14
2022-11-12T07:34:39.829Z,90.73
2022-11-12T07:37:25.669Z,90.68
2022-11-12T07:40:12.064Z,90.84
2022-11-12T07:42:59.510Z,90.76
2022-11-12T07:45:45.450Z,90.08
2022-11-12T07:48:32.479Z,90.37
2022-11-12T07:51:26.283Z,90.37
2022-11-12T07:54:12.164Z,90.12
2022-11-12T07:56:58.009Z,90.03
2022-11-12T07:59:46.293Z,90.14
2022-11-12T08:02:32.610Z,89.95
2022-11-12T08:05:21.362Z,89.95
2022-11-12T08:08:07.563Z,89.72
2022-11-12T08:10:57.396Z,89.94
2022-11-12T08:13:43.087Z,90.32
2022-11-12T08:16:28.858Z,89.93
2022-11-12T08:19:14.850Z,89.90
2022-11-12T08:22:00.831Z,90.32
2022-11-12T08:24:46.910Z,90.15
2022-11-12T08:27:32.598Z,89.94
2022-11-12T08:30:18.448Z,90.09
2022-11-12T08:33:06.327Z,89.84
2022-11-12T08:35:52.370Z,90.14
2022-11-12T08:38:39.350Z,90.21
2022-11-12T08:41:25.401Z,89.87
2022-11-12T08:44:11.239Z,89.97
2022-11-12T08:46:57.151Z,90.12
2022-11-12T08:49:47.802Z,90.27
2022-11-12T08:52:34.396Z,90.46
2022-11-12T08:55:20.288Z,90.40
2022-11-12T08:58:06.689Z,90.04
2022-11-12T09:00:53.490Z,90.12
2022-11-12T09:03:39.170Z,90.18
2022-11-12T09:06:25.134Z,90.37
2022-11-12T09:09:12.677Z,90.30
2022-11-12T09:11:58.739Z,90.36
2022-11-12T09:14:44.628Z,89.87
2022-11-12T09:17:31.325Z,89.52
2022-11-12T09:20:17.412Z,90.13
2022-11-12T09:23:07.635Z,89.30
2022-11-12T09:25:56.121Z,89.72
2022-11-12T09:28:42.031Z,90.07
2022-11-12T09:31:28.371Z,89.78
2022-11-12T09:34:14.633Z,89.86
2022-11-12T09:37:00.734Z,90.23
2022-11-12T09:39:46.729Z,90.11
2022-11-12T09:42:36.583Z,90.00
2022-11-12T09:45:32.967Z,89.68
2022-11-12T09:48:27.699Z,90.06
2022-11-12T09:51:19.029Z,89.92
2022-11-12T09:54:20.098Z,89.92
2022-11-12T09:57:10.260Z,89.94
2022-11-12T09:59:57.311Z,89.81
2022-11-12T10:03:04.911Z,89.36
2022-11-12T10:06:10.646Z,89.80
2022-11-12T10:09:12.476Z,90.09
2022-11-12T10:12:33.310Z,89.83
2022-11-12T10:15:57.242Z,89.83
2022-11-12T10:19:19.497Z,90.04
2022-11-12T10:22:13.030Z,90.15
2022-11-12T10:25:10.020Z,90.22
2022-11-12T10:27:56.726Z,89.88
2022-11-12T10:30:43.917Z,90.21
2022-11-12T10:33:31.530Z,90.16
2022-11-12T10:36:36.305Z,90.13
2022-11-12T10:39:37.591Z,90.09
2022-11-12T10:42:24.150Z,90.27
2022-11-12T10:45:28.724Z,90.60
2022-11-12T10:48:40.842Z,90.42
2022-11-12T10:51:36.061Z,90.32
2022-11-12T10:54:27.920Z,90.13
2022-11-12T10:57:25.650Z,90.62
2022-11-12T11:00:14.979Z,90.41
2022-11-12T11:03:05.258Z,90.59
2022-11-12T11:05:55.902Z,91.08
2022-11-12T11:08:47.335Z,90.84
2022-11-12T11:11:32.982Z,90.51
2022-11-12T11:14:28.752Z,90.15
2022-11-12T11:17:18.824Z,90.42
2022-11-12T11:20:15.199Z,90.61
2022-11-12T11:23:11.224Z,90.24
2022-11-12T11:26:07.467Z,90.91
2022-11-12T11:29:14.281Z,90.99
2022-11-12T11:32:09.168Z,90.51
2022-11-12T11:35:18.574Z,91.07
2022-11-12T11:38:22.604Z,91.12
2022-11-12T11:41:36.197Z,90.62
2022-11-12T11:44:51.209Z,91.06
2022-11-12T11:48:05.745Z,90.89
2022-11-12T11:51:24.794Z,91.39
2022-11-12T11:54:35.524Z,90.52
2022-11-12T11:57:30.469Z,90.95
2022-11-12T12:00:22.403Z,90.88
2022-11-12T12:03:40.676Z,90.80
2022-11-12T12:06:37.256Z,91.34
2022-11-12T12:09:35.494Z,91.12
2022-11-12T12:12:31.155Z,91.34
2022-11-12T12:15:47.883Z,91.65
2022-11-12T12:18:52.674Z,91.66
2022-11-12T12:21:43.113Z,91.60
2022-11-12T12:24:43.694Z,91.99
2022-11-12T12:27:37.643Z,91.91
2022-11-12T12:30:25.924Z,92.04
2022-11-12T12:33:38.224Z,92.21
2022-11-12T12:36:35.142Z,92.59
2022-11-12T12:39:48.242Z,92.73
2022-11-12T12:43:20.723Z,92.12
2022-11-12T12:46:07.914Z,92.84
2022-11-12T12:48:55.767Z,92.65
2022-11-12T12:51:41.953Z,92.29
2022-11-12T12:54:39.798Z,92.48
2022-11-12T12:57:40.190Z,92.47
2022-11-12T13:00:32.585Z,92.33
2022-11-12T13:03:43.105Z,93.27
2022-11-12T13:06:31.476Z,92.78
2022-11-12T13:09:17.120Z,92.37
2022-11-12T13:12:05.946Z,91.83
2022-11-12T13:14:54.620Z,91.96
2022-11-12T13:17:46.322Z,92.14
2022-11-12T13:20:34.884Z,92.18
2022-11-12T13:24:07.577Z,91.89
2022-11-12T13:27:00.687Z,91.59
2022-11-12T13:29:49.220Z,91.53
2022-11-12T13:32:50.136Z,92.25
2022-11-12T13:35:38.754Z,91.14
2022-11-12T13:38:24.982Z,91.28
2022-11-12T13:41:41.837Z,91.44
2022-11-12T13:44:29.328Z,92.41
2022-11-12T13:47:21.869Z,91.99
2022-11-12T13:50:11.133Z,91.93
2022-11-12T13:52:57.364Z,91.69
2022-11-12T13:55:51.688Z,92.30
2022-11-12T13:58:40.136Z,92.52
2022-11-12T14:01:26.390Z,92.30
2022-11-12T14:04:18.848Z,92.67
2022-11-12T14:07:36.525Z,93.09
2022-11-12T14:10:40.057Z,93.04
2022-11-12T14:13:43.433Z,93.06
2022-11-12T14:16:41.252Z,93.32
2022-11-12T14:19:27.002Z,93.17
2022-11-12T14:22:17.002Z,93.19
2022-11-12T14:25:04.128Z,93.22
2022-11-12T14:27:52.658Z,93.35
2022-11-12T14:30:44.964Z,93.60
2022-11-12T14:33:32.693Z,94.04
2022-11-12T14:36:19.495Z,93.65
2022-11-12T14:39:07.075Z,93.87
2022-11-12T14:41:54.008Z,93.75
2022-11-12T14:44:40.576Z,93.92
2022-11-12T14:47:28.087Z,94.05
2022-11-12T14:50:26.627Z,94.35
2022-11-12T14:53:41.657Z,94.17
2022-11-12T14:56:45.337Z,94.58
2022-11-12T14:59:32.477Z,94.33
2022-11-12T15:02:37.620Z,94.47
2022-11-12T15:05:33.446Z,94.48
2022-11-12T15:08:30.346Z,94.91
2022-11-12T15:11:31.797Z,94.51
2022-11-12T15:14:24.938Z,94.78
2022-11-12T15:17:33.096Z,94.86
2022-11-12T15:20:20.377Z,94.67
2022-11-12T15:23:07.126Z,94.99
2022-11-12T15:26:00.577Z,95.05
2022-11-12T15:29:22.782Z,95.19
2022-11-12T15:32:14.056Z,94.67
2022-11-12T15:34:59.929Z,95.60
2022-11-12T15:37:46.116Z,95.34
2022-11-12T15:40:33.602Z,95.30
2022-11-12T15:43:24.202Z,95.09
2022-11-12T15:46:17.620Z,95.79
2022-11-12T15:49:03.687Z,95.42
2022-11-12T15:51:49.955Z,95.96
2022-11-12T15:54:40.697Z,95.94
2022-11-12T15:57:32.088Z,95.90
2022-11-12T16:00:18.482Z,96.16
2022-11-12T16:03:17.996Z,96.20
2022-11-12T16:06:08.642Z,96.10
2022-11-12T16:08:55.044Z,96.22
2022-11-12T16:11:41.286Z,96.12
2022-11-12T16:14:28.334Z,96.07
2022-11-12T16:17:16.349Z,96.54
2022-11-12T16:20:02.280Z,96.04
2022-11-12T16:22:49.156Z,96.25
2022-11-12T16:25:37.438Z,96.11
2022-11-12T16:28:23.133Z,96.23
2022-11-12T16:31:09.090Z,95.82
2022-11-12T16:33:54.815Z,96.08
2022-11-12T16:36:40.756Z,95.86
2022-11-12T16:39:27.109Z,96.42
2022-11-12T16:42:13.412Z,95.96
2022-11-12T16:44:59.480Z,96.48
2022-11-12T16:47:56.556Z,96.20
2022-11-12T16:50:42.398Z,96.23
2022-11-12T16:53:28.738Z,96.19
2022-11-12T16:56:18.438Z,96.25
2022-11-12T16:59:04.923Z,96.02
2022-11-12T17:01:50.880Z,96.13
2022-11-12T17:04:36.891Z,96.46
2022-11-12T17:07:23.213Z,96.22
2022-11-12T17:10:09.666Z,96.33
2022-11-12T17:12:55.749Z,96.65
2022-11-12T17:15:41.597Z,96.73
2022-11-12T17:18:27.417Z,96.89
2022-11-12T17:21:16.686Z,96.88
2022-11-12T17:24:02.601Z,96.60
2022-11-12T17:26:48.497Z,96.39
2022-11-12T17:29:34.117Z,96.58
2022-11-12T17:32:20.313Z,96.37
2022-11-12T17:35:07.348Z,96.56
2022-11-12T17:37:53.616Z,96.50
2022-11-12T17:40:39.840Z,96.50
2022-11-12T17:43:26.994Z,96.10
2022-11-12T17:46:15.356Z,96.52
2022-11-12T17:49:01.866Z,96.78
2022-11-12T17:51:47.967Z,96.85
2022-11-12T17:54:34.916Z,96.65
2022-11-12T17:57:21.137Z,96.65
2022-11-12T18:00:07.812Z,96.69
2022-11-12T18:02:56.265Z,97.08
2022-11-12T18:05:42.367Z,96.85
2022-11-12T18:08:28.524Z,97.58
2022-11-12T18:11:15.627Z,97.27
2022-11-12T18:14:07.623Z,97.18
2022-11-12T18:16:53.730Z,96.99
2022-11-12T18:19:39.741Z,97.29
2022-11-12T18:22:26.414Z,97.42
2022-11-12T18:25:13.268Z,97.67
2022-11-12T18:27:59.415Z,97.62
2022-11-12T18:30:45.216Z,97.07
2022-11-12T18:33:31.945Z,97.78
2022-11-12T18:36:24.619Z,97.86
2022-11-12T18:39:10.654Z,97.78
2022-11-12T18:41:56.453Z,97.91
2022-11-12T18:44:42.410Z,98.09
2022-11-12T18:47:30.600Z,98.32
2022-11-12T18:50:16.901Z,98.67
2022-11-12T18:53:02.726Z,98.11
2022-11-12T18:55:48.736Z,98.65
2022-11-12T18:58:35.581Z,98.87
2022-11-12T19:01:23.535Z,99.21
2022-11-12T19:04:11.626Z,99.17
2022-11-12T19:06:57.406Z,99.35
2022-11-12T19:09:43.567Z,99.23
2022-11-12T19:12:29.410Z,99.22
2022-11-12T19:15:15.604Z,99.37
2022-11-12T19:18:01.771Z,99.92
2022-11-12T19:20:48.411Z,99.62
2022-11-12T19:23:34.328Z,100.00
2022-11-12T19:26:21.373Z,99.95
2022-11-12T19:29:07.772Z,100.00
2022-11-12T19:31:54.738Z,100.00
2022-11-12T19:34:40.860Z,100.00
2022-11-12T19:37:33.492Z,100.00
2022-11-12T19:40:20.327Z,100.00
2022-11-12T19:43:06.311Z,100.00
2022-11-12T19:45:52.377Z,100.00
2022-11-12T19:48:38.908Z,100.00
2022-11-12T19:51:25.078Z,100.00
2022-11-12T19:54:11.471Z,100.00
2022-11-12T19:56:57.361Z,100.00
2022-11-12T19:59:43.463Z,100.00
2022-11-12T20:02:29.483Z,100.00
2022-11-12T20:05:15.616Z,100.00
2022-11-12T20:08:01.502Z,100.00
2022-11-12T20:10:47.584Z,100.00
2022-11-12T20:13:33.904Z,100.00
2022-11-12T20:16:25.197Z,100.00
2022-11-12T20:19:11.786Z,100.00
2022-11-12T20:21:57.736Z,100.00
2022-11-12T20:24:43.758Z,100.00
2022-11-12T20:27:29.672Z,100.00
2022-11-12T20:30:15.813Z,100.00
2022-11-12T20:33:01.750Z,100.00
2022-11-12T20:35:47.692Z,100.00
2022-11-12T20:38:36.610Z,100.00
2022-11-12T20:41:25.028Z,100.00
2022-11-12T20:44:10.671Z,100.00
2022-11-12T20:46:56.658Z,100.00
2022-11-12T20:49:42.471Z,100.00
2022-11-12T20:52:28.198Z,100.00
2022-11-12T20:55:14.278Z,100.00
2022-11-12T20:58:00.727Z,100.00
2022-11-12T21:00:46.437Z,100.00
2022-11-12T21:03:34.102Z,100.00
2022-11-12T21:06:23.034Z,100.00
2022-11-12T21:09:08.943Z,100.00
2022-11-12T21:11:54.954Z,100.00
2022-11-12T21:14:43.768Z,100.00
2022-11-12T21:17:33.728Z,100.00
2022-11-12T21:20:19.700Z,100.00
2022-11-12T21:23:05.573Z,100.00
2022-11-12T21:25:51.659Z,100.00
2022-11-12T21:28:38.651Z,100.00
2022-11-12T21:31:29.881Z,100.00
2022-11-12T21:34:15.967Z,100.00
2022-11-12T21:37:01.993Z,100.00
2022-11-12T21:39:49.517Z,100.00
2022-11-12T21:42:35.692Z,100.00
2022-11-12T21:45:21.412Z,100.00
2022-11-12T21:48:07.381Z,100.00
2022-11-12T21:50:53.260Z,100.00
2022-11-12T21:53:39.703Z,100.00
2022-11-12T21:56:26.534Z,100.00
2022-11-12T21:59:12.399Z,100.00
2022-11-12T22:01:58.284Z,100.00
2022-11-12T22:04:44.133Z,100.00
2022-11-12T22:07:29.725Z,100.00
2022-11-12T22:10:15.746Z,100.00
2022-11-12T22:16:12.238Z,100.00
2022-11-12T22:18:58.748Z,100.00
2022-11-12T22:21:44.696Z,100.00
2022-11-12T22:24:30.528Z,100.00
2022-11-12T22:27:16.587Z,100.00
2022-11-12T22:30:02.533Z,100.00
2022-11-12T22:32:48.638Z,100.00
2022-11-12T22:35:35.933Z,100.00
2022-11-12T22:38:21.759Z,100.00
2022-11-12T22:41:12.768Z,100.00
2022-11-12T22:44:01.525Z,100.00
2022-11-12T22:46:47.340Z,100.00
2022-11-12T22:49:33.479Z,100.00
2022-11-12T22:52:19.607Z,100.00
2022-11-12T22:55:05.961Z,100.00
2022-11-12T22:57:51.665Z,100.00
2022-11-12T23:00:37.617Z,100.00
2022-11-12T23:03:23.808Z,100.00
2022-11-12T23:06:10.374Z,100.00
2022-11-12T23:09:01.590Z,100.00
2022-11-12T23:11:47.497Z,100.00
2022-11-12T23:14:33.722Z,100.00
2022-11-12T23:17:20.636Z,100.00
2022-11-12T23:20:07.482Z,100.00
2022-11-12T23:22:53.604Z,100.00
2022-11-12T23:25:39.398Z,100.00
2022-11-12T23:28:25.531Z,100.00
2022-11-12T23:31:17.686Z,100.00
2022-11-12T23:34:03.531Z,100.00
2022-11-12T23:36:49.573Z,100.00
2022-11-12T23:39:35.305Z,100.00
2022-11-12T23:42:22.248Z,100.00
2022-11-12T23:45:08.863Z,100.00
2022-11-12T23:47:56.271Z,100.00
2022-11-12T23:50:42.312Z,100.00
2022-11-12T23:53:27.990Z,100.00
2022-11-12T23:56:15.868Z,100.00
2022-11-12T23:59:01.878Z,100.00
